sensor_id;sensor_type;location;lat;lon;timestamp;temperature;humidity
8965;DHT22;4517;49.020;12.066;2023-05-07T00:01:43;10.40;99.90
8965;DHT22;4517;49.020;12.066;2023-05-07T00:04:08;10.50;99.90
8965;DHT22;4517;49.020;12.066;2023-05-07T00:06:34;10.40;99.90
8965;DHT22;4517;49.020;12.066;2023-05-07T00:09:00;10.40;99.90
8965;DHT22;4517;49.020;12.066;2023-05-07T00:11:27;10.40;99.90
8965;DHT22;4517;49.020;12.066;2023-05-07T00:13:52;10.40;99.90
8965;DHT22;4517;49.020;12.066;2023-05-07T00:16:18;10.40;99.90
8965;DHT22;4517;49.020;12.066;2023-05-07T00:18:44;10.40;99.90
8965;DHT22;4517;49.020;12.066;2023-05-07T00:21:10;10.30;99.90
8965;DHT22;4517;49.020;12.066;2023-05-07T00:23:36;10.40;99.90
8965;DHT22;4517;49.020;12.066;2023-05-07T00:26:03;10.30;99.90
8965;DHT22;4517;49.020;12.066;2023-05-07T00:28:29;10.30;99.90
8965;DHT22;4517;49.020;12.066;2023-05-07T00:30:54;10.30;99.90
8965;DHT22;4517;49.020;12.066;2023-05-07T00:33:20;10.30;99.90
8965;DHT22;4517;49.020;12.066;2023-05-07T00:35:46;10.20;99.90
8965;DHT22;4517;49.020;12.066;2023-05-07T00:38:11;10.20;99.90
8965;DHT22;4517;49.020;12.066;2023-05-07T00:40:37;10.30;99.90
8965;DHT22;4517;49.020;12.066;2023-05-07T00:43:03;10.30;99.90
8965;DHT22;4517;49.020;12.066;2023-05-07T00:45:29;10.30;99.90
8965;DHT22;4517;49.020;12.066;2023-05-07T00:47:56;10.20;99.90
8965;DHT22;4517;49.020;12.066;2023-05-07T00:50:22;10.20;99.90
8965;DHT22;4517;49.020;12.066;2023-05-07T00:52:48;10.10;99.90
8965;DHT22;4517;49.020;12.066;2023-05-07T00:55:14;10.00;99.90
8965;DHT22;4517;49.020;12.066;2023-05-07T00:57:40;10.00;99.90
8965;DHT22;4517;49.020;12.066;2023-05-07T01:00:07;10.00;99.90
8965;DHT22;4517;49.020;12.066;2023-05-07T01:02:35;10.00;99.90
8965;DHT22;4517;49.020;12.066;2023-05-07T01:05:01;9.90;99.90
8965;DHT22;4517;49.020;12.066;2023-05-07T01:07:29;9.90;99.90
8965;DHT22;4517;49.020;12.066;2023-05-07T01:09:55;9.80;99.90
8965;DHT22;4517;49.020;12.066;2023-05-07T01:12:21;9.80;99.90
8965;DHT22;4517;49.020;12.066;2023-05-07T01:14:47;9.80;99.90
8965;DHT22;4517;49.020;12.066;2023-05-07T01:17:14;9.70;99.90
8965;DHT22;4517;49.020;12.066;2023-05-07T01:19:40;9.70;99.90
8965;DHT22;4517;49.020;12.066;2023-05-07T01:22:09;9.70;99.90
8965;DHT22;4517;49.020;12.066;2023-05-07T01:24:40;9.70;99.90
8965;DHT22;4517;49.020;12.066;2023-05-07T01:27:06;9.60;99.90
8965;DHT22;4517;49.020;12.066;2023-05-07T01:29:31;9.60;99.90
8965;DHT22;4517;49.020;12.066;2023-05-07T01:31:59;9.60;99.90
8965;DHT22;4517;49.020;12.066;2023-05-07T01:34:27;9.60;99.90
8965;DHT22;4517;49.020;12.066;2023-05-07T01:36:56;9.60;99.90
8965;DHT22;4517;49.020;12.066;2023-05-07T01:39:25;9.60;99.90
8965;DHT22;4517;49.020;12.066;2023-05-07T01:41:51;9.70;99.90
8965;DHT22;4517;49.020;12.066;2023-05-07T01:44:17;9.70;99.90
8965;DHT22;4517;49.020;12.066;2023-05-07T01:46:43;9.80;99.90
8965;DHT22;4517;49.020;12.066;2023-05-07T01:49:09;9.70;99.90
8965;DHT22;4517;49.020;12.066;2023-05-07T01:51:35;9.80;99.90
8965;DHT22;4517;49.020;12.066;2023-05-07T01:54:01;9.70;99.90
8965;DHT22;4517;49.020;12.066;2023-05-07T01:56:27;9.80;99.90
8965;DHT22;4517;49.020;12.066;2023-05-07T01:58:52;9.80;99.90
8965;DHT22;4517;49.020;12.066;2023-05-07T02:01:18;9.90;99.90
8965;DHT22;4517;49.020;12.066;2023-05-07T02:03:44;10.00;99.90
8965;DHT22;4517;49.020;12.066;2023-05-07T02:06:09;10.10;99.90
8965;DHT22;4517;49.020;12.066;2023-05-07T02:08:35;10.10;99.90
8965;DHT22;4517;49.020;12.066;2023-05-07T02:11:01;10.20;99.90
8965;DHT22;4517;49.020;12.066;2023-05-07T02:13:29;10.30;99.90
8965;DHT22;4517;49.020;12.066;2023-05-07T02:15:55;10.20;99.90
8965;DHT22;4517;49.020;12.066;2023-05-07T02:18:21;10.00;99.90
8965;DHT22;4517;49.020;12.066;2023-05-07T02:20:46;10.00;99.90
8965;DHT22;4517;49.020;12.066;2023-05-07T02:23:12;9.90;99.90
8965;DHT22;4517;49.020;12.066;2023-05-07T02:25:38;9.90;99.90
8965;DHT22;4517;49.020;12.066;2023-05-07T02:28:03;9.80;99.90
8965;DHT22;4517;49.020;12.066;2023-05-07T02:30:29;9.70;99.90
8965;DHT22;4517;49.020;12.066;2023-05-07T02:32:54;9.70;99.90
8965;DHT22;4517;49.020;12.066;2023-05-07T02:35:20;9.70;99.90
8965;DHT22;4517;49.020;12.066;2023-05-07T02:37:45;9.80;99.90
8965;DHT22;4517;49.020;12.066;2023-05-07T02:40:11;10.00;99.90
8965;DHT22;4517;49.020;12.066;2023-05-07T02:42:37;9.90;99.90
8965;DHT22;4517;49.020;12.066;2023-05-07T02:45:03;9.90;99.90
8965;DHT22;4517;49.020;12.066;2023-05-07T02:47:28;10.00;99.90
8965;DHT22;4517;49.020;12.066;2023-05-07T02:49:54;10.00;99.90
8965;DHT22;4517;49.020;12.066;2023-05-07T02:52:20;9.90;99.90
8965;DHT22;4517;49.020;12.066;2023-05-07T02:54:46;9.90;99.90
8965;DHT22;4517;49.020;12.066;2023-05-07T02:57:12;9.80;99.90
8965;DHT22;4517;49.020;12.066;2023-05-07T02:59:37;9.80;99.90
8965;DHT22;4517;49.020;12.066;2023-05-07T03:02:03;9.70;99.90
8965;DHT22;4517;49.020;12.066;2023-05-07T03:04:28;9.60;99.90
8965;DHT22;4517;49.020;12.066;2023-05-07T03:06:54;9.60;99.90
8965;DHT22;4517;49.020;12.066;2023-05-07T03:09:20;9.70;99.90
8965;DHT22;4517;49.020;12.066;2023-05-07T03:11:45;9.80;99.90
8965;DHT22;4517;49.020;12.066;2023-05-07T03:14:11;9.90;99.90
8965;DHT22;4517;49.020;12.066;2023-05-07T03:16:37;10.10;99.90
8965;DHT22;4517;49.020;12.066;2023-05-07T03:19:03;10.20;99.90
8965;DHT22;4517;49.020;12.066;2023-05-07T03:21:28;10.20;99.90
8965;DHT22;4517;49.020;12.066;2023-05-07T03:23:54;10.00;99.90
8965;DHT22;4517;49.020;12.066;2023-05-07T03:26:19;9.90;99.90
8965;DHT22;4517;49.020;12.066;2023-05-07T03:28:45;9.90;99.90
8965;DHT22;4517;49.020;12.066;2023-05-07T03:31:11;9.90;99.90
8965;DHT22;4517;49.020;12.066;2023-05-07T03:33:49;9.90;99.90
8965;DHT22;4517;49.020;12.066;2023-05-07T03:36:15;10.00;99.90
8965;DHT22;4517;49.020;12.066;2023-05-07T03:38:40;10.00;99.90
8965;DHT22;4517;49.020;12.066;2023-05-07T03:41:06;9.90;99.90
8965;DHT22;4517;49.020;12.066;2023-05-07T03:43:31;9.90;99.90
8965;DHT22;4517;49.020;12.066;2023-05-07T03:45:57;9.90;99.90
8965;DHT22;4517;49.020;12.066;2023-05-07T03:48:22;9.90;99.90
8965;DHT22;4517;49.020;12.066;2023-05-07T03:50:48;10.00;99.90
8965;DHT22;4517;49.020;12.066;2023-05-07T03:53:13;10.10;99.90
8965;DHT22;4517;49.020;12.066;2023-05-07T03:55:39;10.20;99.90
8965;DHT22;4517;49.020;12.066;2023-05-07T03:58:04;10.50;99.90
8965;DHT22;4517;49.020;12.066;2023-05-07T04:00:30;11.00;99.90
8965;DHT22;4517;49.020;12.066;2023-05-07T04:02:58;11.60;99.90
8965;DHT22;4517;49.020;12.066;2023-05-07T04:05:24;12.20;99.90
8965;DHT22;4517;49.020;12.066;2023-05-07T04:07:50;12.40;99.90
8965;DHT22;4517;49.020;12.066;2023-05-07T04:10:15;12.30;99.90
8965;DHT22;4517;49.020;12.066;2023-05-07T04:12:41;12.30;99.90
8965;DHT22;4517;49.020;12.066;2023-05-07T04:15:07;12.40;99.90
8965;DHT22;4517;49.020;12.066;2023-05-07T04:17:32;12.70;99.90
8965;DHT22;4517;49.020;12.066;2023-05-07T04:19:58;12.80;99.90
8965;DHT22;4517;49.020;12.066;2023-05-07T04:22:24;13.00;99.90
8965;DHT22;4517;49.020;12.066;2023-05-07T04:24:49;13.20;99.90
8965;DHT22;4517;49.020;12.066;2023-05-07T04:27:15;13.40;99.90
8965;DHT22;4517;49.020;12.066;2023-05-07T04:29:41;13.70;99.90
8965;DHT22;4517;49.020;12.066;2023-05-07T04:32:09;13.70;99.90
8965;DHT22;4517;49.020;12.066;2023-05-07T04:34:34;14.10;99.90
8965;DHT22;4517;49.020;12.066;2023-05-07T04:37:00;14.50;99.90
8965;DHT22;4517;49.020;12.066;2023-05-07T04:39:25;15.20;99.90
8965;DHT22;4517;49.020;12.066;2023-05-07T04:41:51;15.90;99.90
8965;DHT22;4517;49.020;12.066;2023-05-07T04:44:16;17.00;99.90
8965;DHT22;4517;49.020;12.066;2023-05-07T04:46:42;18.30;99.90
8965;DHT22;4517;49.020;12.066;2023-05-07T04:49:07;19.40;99.90
8965;DHT22;4517;49.020;12.066;2023-05-07T04:51:33;18.90;99.90
8965;DHT22;4517;49.020;12.066;2023-05-07T04:53:58;20.30;99.90
8965;DHT22;4517;49.020;12.066;2023-05-07T04:56:24;20.10;99.90
8965;DHT22;4517;49.020;12.066;2023-05-07T04:58:52;20.30;99.90
8965;DHT22;4517;49.020;12.066;2023-05-07T05:01:18;21.90;99.90
8965;DHT22;4517;49.020;12.066;2023-05-07T05:03:43;23.20;99.90
8965;DHT22;4517;49.020;12.066;2023-05-07T05:06:09;24.00;99.90
8965;DHT22;4517;49.020;12.066;2023-05-07T05:08:34;24.00;99.90
8965;DHT22;4517;49.020;12.066;2023-05-07T05:11:01;24.70;99.90
8965;DHT22;4517;49.020;12.066;2023-05-07T05:13:27;24.80;99.90
8965;DHT22;4517;49.020;12.066;2023-05-07T05:15:53;22.90;99.90
8965;DHT22;4517;49.020;12.066;2023-05-07T05:18:18;21.00;99.90
8965;DHT22;4517;49.020;12.066;2023-05-07T05:20:44;20.30;99.90
8965;DHT22;4517;49.020;12.066;2023-05-07T05:23:09;22.30;99.90
8965;DHT22;4517;49.020;12.066;2023-05-07T05:25:35;22.30;99.90
8965;DHT22;4517;49.020;12.066;2023-05-07T05:28:01;20.70;99.90
8965;DHT22;4517;49.020;12.066;2023-05-07T05:30:26;19.40;99.90
8965;DHT22;4517;49.020;12.066;2023-05-07T05:32:52;18.80;99.90
8965;DHT22;4517;49.020;12.066;2023-05-07T05:35:17;17.90;99.90
8965;DHT22;4517;49.020;12.066;2023-05-07T05:37:43;17.00;99.90
8965;DHT22;4517;49.020;12.066;2023-05-07T05:40:09;17.00;99.90
8965;DHT22;4517;49.020;12.066;2023-05-07T05:42:35;18.90;99.90
8965;DHT22;4517;49.020;12.066;2023-05-07T05:45:01;21.10;99.90
8965;DHT22;4517;49.020;12.066;2023-05-07T05:47:26;23.10;99.90
8965;DHT22;4517;49.020;12.066;2023-05-07T05:49:52;23.50;99.90
8965;DHT22;4517;49.020;12.066;2023-05-07T05:52:17;22.30;99.90
8965;DHT22;4517;49.020;12.066;2023-05-07T05:54:43;22.20;99.90
8965;DHT22;4517;49.020;12.066;2023-05-07T05:57:08;21.00;99.90
8965;DHT22;4517;49.020;12.066;2023-05-07T05:59:34;19.80;99.90
8965;DHT22;4517;49.020;12.066;2023-05-07T06:02:00;19.10;99.90
8965;DHT22;4517;49.020;12.066;2023-05-07T06:04:25;18.90;99.90
8965;DHT22;4517;49.020;12.066;2023-05-07T06:06:51;18.60;99.90
8965;DHT22;4517;49.020;12.066;2023-05-07T06:09:16;19.00;99.90
8965;DHT22;4517;49.020;12.066;2023-05-07T06:11:42;19.20;99.90
8965;DHT22;4517;49.020;12.066;2023-05-07T06:14:08;19.90;99.90
8965;DHT22;4517;49.020;12.066;2023-05-07T06:16:34;19.30;99.90
8965;DHT22;4517;49.020;12.066;2023-05-07T06:18:59;19.40;99.90
8965;DHT22;4517;49.020;12.066;2023-05-07T06:21:25;19.60;99.90
8965;DHT22;4517;49.020;12.066;2023-05-07T06:23:50;20.40;99.90
8965;DHT22;4517;49.020;12.066;2023-05-07T06:26:18;20.80;99.90
8965;DHT22;4517;49.020;12.066;2023-05-07T06:28:44;20.90;99.90
8965;DHT22;4517;49.020;12.066;2023-05-07T06:31:15;20.70;99.90
8965;DHT22;4517;49.020;12.066;2023-05-07T06:33:42;19.90;99.90
8965;DHT22;4517;49.020;12.066;2023-05-07T06:36:08;20.10;99.90
8965;DHT22;4517;49.020;12.066;2023-05-07T06:38:34;19.70;99.90
8965;DHT22;4517;49.020;12.066;2023-05-07T06:40:59;18.50;99.90
8965;DHT22;4517;49.020;12.066;2023-05-07T06:43:25;18.60;99.90
8965;DHT22;4517;49.020;12.066;2023-05-07T06:45:50;18.20;99.90
8965;DHT22;4517;49.020;12.066;2023-05-07T06:48:16;17.80;99.90
8965;DHT22;4517;49.020;12.066;2023-05-07T06:50:42;17.90;99.90
8965;DHT22;4517;49.020;12.066;2023-05-07T06:53:07;17.70;99.90
8965;DHT22;4517;49.020;12.066;2023-05-07T06:55:33;18.10;99.90
8965;DHT22;4517;49.020;12.066;2023-05-07T06:57:59;17.90;99.90
8965;DHT22;4517;49.020;12.066;2023-05-07T07:00:27;17.70;99.90
8965;DHT22;4517;49.020;12.066;2023-05-07T07:02:54;17.60;99.90
8965;DHT22;4517;49.020;12.066;2023-05-07T07:05:20;17.50;99.90
8965;DHT22;4517;49.020;12.066;2023-05-07T07:07:45;17.60;99.90
8965;DHT22;4517;49.020;12.066;2023-05-07T07:10:21;17.60;99.90
8965;DHT22;4517;49.020;12.066;2023-05-07T07:12:46;17.90;99.90
8965;DHT22;4517;49.020;12.066;2023-05-07T07:15:12;18.10;99.90
8965;DHT22;4517;49.020;12.066;2023-05-07T07:17:38;18.40;99.90
8965;DHT22;4517;49.020;12.066;2023-05-07T07:20:04;18.80;99.90
8965;DHT22;4517;49.020;12.066;2023-05-07T07:22:30;19.40;99.90
8965;DHT22;4517;49.020;12.066;2023-05-07T07:24:56;19.10;99.90
8965;DHT22;4517;49.020;12.066;2023-05-07T07:27:21;18.80;99.90
8965;DHT22;4517;49.020;12.066;2023-05-07T07:29:47;19.10;99.90
8965;DHT22;4517;49.020;12.066;2023-05-07T07:32:13;19.10;99.90
8965;DHT22;4517;49.020;12.066;2023-05-07T07:34:38;19.20;99.90
8965;DHT22;4517;49.020;12.066;2023-05-07T07:37:04;19.20;99.90
8965;DHT22;4517;49.020;12.066;2023-05-07T07:39:34;19.00;99.90
8965;DHT22;4517;49.020;12.066;2023-05-07T07:42:00;19.00;99.90
8965;DHT22;4517;49.020;12.066;2023-05-07T07:44:26;19.10;99.90
8965;DHT22;4517;49.020;12.066;2023-05-07T07:46:52;18.80;99.90
8965;DHT22;4517;49.020;12.066;2023-05-07T07:49:17;18.80;99.90
8965;DHT22;4517;49.020;12.066;2023-05-07T07:51:43;18.40;99.90
8965;DHT22;4517;49.020;12.066;2023-05-07T07:54:09;18.80;99.90
8965;DHT22;4517;49.020;12.066;2023-05-07T07:56:35;18.60;99.90
8965;DHT22;4517;49.020;12.066;2023-05-07T07:59:00;18.90;99.90
8965;DHT22;4517;49.020;12.066;2023-05-07T08:01:26;18.80;99.90
8965;DHT22;4517;49.020;12.066;2023-05-07T08:03:52;19.10;99.90
8965;DHT22;4517;49.020;12.066;2023-05-07T08:06:18;19.20;99.90
8965;DHT22;4517;49.020;12.066;2023-05-07T08:08:44;19.30;99.90
8965;DHT22;4517;49.020;12.066;2023-05-07T08:11:10;19.10;99.90
8965;DHT22;4517;49.020;12.066;2023-05-07T08:13:36;18.90;99.90
8965;DHT22;4517;49.020;12.066;2023-05-07T08:16:03;18.60;99.90
8965;DHT22;4517;49.020;12.066;2023-05-07T08:18:29;18.70;99.90
8965;DHT22;4517;49.020;12.066;2023-05-07T08:20:55;18.70;99.90
8965;DHT22;4517;49.020;12.066;2023-05-07T08:23:21;19.20;99.90
8965;DHT22;4517;49.020;12.066;2023-05-07T08:25:46;19.50;99.90
8965;DHT22;4517;49.020;12.066;2023-05-07T08:28:12;19.50;99.90
8965;DHT22;4517;49.020;12.066;2023-05-07T08:30:37;19.50;99.90
8965;DHT22;4517;49.020;12.066;2023-05-07T08:33:03;19.90;99.90
8965;DHT22;4517;49.020;12.066;2023-05-07T08:35:28;20.50;99.90
8965;DHT22;4517;49.020;12.066;2023-05-07T08:37:55;20.60;99.90
8965;DHT22;4517;49.020;12.066;2023-05-07T08:40:25;21.00;99.90
8965;DHT22;4517;49.020;12.066;2023-05-07T08:42:52;20.60;99.90
8965;DHT22;4517;49.020;12.066;2023-05-07T08:45:19;20.90;99.90
8965;DHT22;4517;49.020;12.066;2023-05-07T08:47:57;21.10;99.90
8965;DHT22;4517;49.020;12.066;2023-05-07T08:50:23;21.20;99.90
8965;DHT22;4517;49.020;12.066;2023-05-07T08:52:49;21.20;99.90
8965;DHT22;4517;49.020;12.066;2023-05-07T08:55:15;20.90;99.90
8965;DHT22;4517;49.020;12.066;2023-05-07T08:57:41;20.80;99.90
8965;DHT22;4517;49.020;12.066;2023-05-07T09:00:07;20.60;99.90
8965;DHT22;4517;49.020;12.066;2023-05-07T09:02:35;20.80;99.90
8965;DHT22;4517;49.020;12.066;2023-05-07T09:05:00;20.80;99.90
8965;DHT22;4517;49.020;12.066;2023-05-07T09:07:26;21.10;99.90
8965;DHT22;4517;49.020;12.066;2023-05-07T09:09:52;20.80;99.90
8965;DHT22;4517;49.020;12.066;2023-05-07T09:12:21;21.20;99.90
8965;DHT22;4517;49.020;12.066;2023-05-07T09:14:46;21.10;99.90
8965;DHT22;4517;49.020;12.066;2023-05-07T09:17:12;21.20;99.90
8965;DHT22;4517;49.020;12.066;2023-05-07T09:19:38;21.50;99.90
8965;DHT22;4517;49.020;12.066;2023-05-07T09:22:05;21.30;99.90
8965;DHT22;4517;49.020;12.066;2023-05-07T09:24:32;21.40;99.90
8965;DHT22;4517;49.020;12.066;2023-05-07T09:27:03;21.50;99.90
8965;DHT22;4517;49.020;12.066;2023-05-07T09:29:29;21.40;99.90
8965;DHT22;4517;49.020;12.066;2023-05-07T09:31:56;21.50;99.90
8965;DHT22;4517;49.020;12.066;2023-05-07T09:34:21;21.90;99.90
8965;DHT22;4517;49.020;12.066;2023-05-07T09:36:47;21.90;99.90
8965;DHT22;4517;49.020;12.066;2023-05-07T09:39:13;22.10;99.90
8965;DHT22;4517;49.020;12.066;2023-05-07T09:41:46;21.50;99.90
8965;DHT22;4517;49.020;12.066;2023-05-07T09:44:13;21.60;99.90
8965;DHT22;4517;49.020;12.066;2023-05-07T09:46:42;21.80;99.90
8965;DHT22;4517;49.020;12.066;2023-05-07T09:49:13;21.30;99.90
8965;DHT22;4517;49.020;12.066;2023-05-07T09:51:48;22.10;99.90
8965;DHT22;4517;49.020;12.066;2023-05-07T09:54:15;22.60;99.90
8965;DHT22;4517;49.020;12.066;2023-05-07T09:56:43;22.50;99.90
8965;DHT22;4517;49.020;12.066;2023-05-07T09:59:12;22.60;99.90
8965;DHT22;4517;49.020;12.066;2023-05-07T10:01:43;22.70;99.90
8965;DHT22;4517;49.020;12.066;2023-05-07T10:04:12;22.50;99.90
8965;DHT22;4517;49.020;12.066;2023-05-07T10:06:38;22.20;99.90
8965;DHT22;4517;49.020;12.066;2023-05-07T10:09:05;22.00;99.90
8965;DHT22;4517;49.020;12.066;2023-05-07T10:11:34;21.70;99.90
8965;DHT22;4517;49.020;12.066;2023-05-07T10:14:04;21.50;99.90
8965;DHT22;4517;49.020;12.066;2023-05-07T10:16:35;20.90;99.90
8965;DHT22;4517;49.020;12.066;2023-05-07T10:19:05;20.70;99.90
8965;DHT22;4517;49.020;12.066;2023-05-07T10:21:36;20.80;99.90
8965;DHT22;4517;49.020;12.066;2023-05-07T10:24:10;20.90;99.90
8965;DHT22;4517;49.020;12.066;2023-05-07T10:26:41;21.70;99.90
8965;DHT22;4517;49.020;12.066;2023-05-07T10:29:14;21.70;99.90
8965;DHT22;4517;49.020;12.066;2023-05-07T10:31:57;21.70;99.90
8965;DHT22;4517;49.020;12.066;2023-05-07T10:34:29;21.50;99.90
8965;DHT22;4517;49.020;12.066;2023-05-07T10:36:57;21.30;99.90
8965;DHT22;4517;49.020;12.066;2023-05-07T10:39:23;21.20;99.90
8965;DHT22;4517;49.020;12.066;2023-05-07T10:41:49;20.80;99.90
8965;DHT22;4517;49.020;12.066;2023-05-07T10:44:28;20.70;99.90
8965;DHT22;4517;49.020;12.066;2023-05-07T10:47:11;20.40;99.90
8965;DHT22;4517;49.020;12.066;2023-05-07T10:52:18;20.80;99.90
8965;DHT22;4517;49.020;12.066;2023-05-07T10:54:45;20.80;99.90
8965;DHT22;4517;49.020;12.066;2023-05-07T10:57:35;21.10;99.90
8965;DHT22;4517;49.020;12.066;2023-05-07T11:00:02;20.90;99.90
8965;DHT22;4517;49.020;12.066;2023-05-07T11:05:32;20.90;99.90
8965;DHT22;4517;49.020;12.066;2023-05-07T11:08:00;21.10;99.90
8965;DHT22;4517;49.020;12.066;2023-05-07T11:10:55;21.10;99.90
8965;DHT22;4517;49.020;12.066;2023-05-07T11:13:41;21.00;99.90
8965;DHT22;4517;49.020;12.066;2023-05-07T11:18:51;20.90;99.90
8965;DHT22;4517;49.020;12.066;2023-05-07T11:21:36;21.30;99.90
8965;DHT22;4517;49.020;12.066;2023-05-07T11:24:03;21.70;99.90
8965;DHT22;4517;49.020;12.066;2023-05-07T11:26:31;21.90;99.90
8965;DHT22;4517;49.020;12.066;2023-05-07T11:28:57;21.90;99.90
8965;DHT22;4517;49.020;12.066;2023-05-07T11:31:26;21.80;99.90
8965;DHT22;4517;49.020;12.066;2023-05-07T11:33:54;21.70;99.90
8965;DHT22;4517;49.020;12.066;2023-05-07T11:36:21;21.60;99.90
8965;DHT22;4517;49.020;12.066;2023-05-07T11:38:47;21.90;99.90
8965;DHT22;4517;49.020;12.066;2023-05-07T11:41:13;22.60;99.90
8965;DHT22;4517;49.020;12.066;2023-05-07T11:43:53;22.70;99.90
8965;DHT22;4517;49.020;12.066;2023-05-07T11:46:21;23.10;99.90
8965;DHT22;4517;49.020;12.066;2023-05-07T11:48:46;22.90;99.90
8965;DHT22;4517;49.020;12.066;2023-05-07T11:51:12;22.80;99.90
8965;DHT22;4517;49.020;12.066;2023-05-07T11:53:42;22.40;99.90
8965;DHT22;4517;49.020;12.066;2023-05-07T11:56:09;21.70;99.90
8965;DHT22;4517;49.020;12.066;2023-05-07T11:58:35;21.60;99.90
8965;DHT22;4517;49.020;12.066;2023-05-07T12:01:00;21.50;99.90
8965;DHT22;4517;49.020;12.066;2023-05-07T12:03:26;21.50;99.90
8965;DHT22;4517;49.020;12.066;2023-05-07T12:05:51;21.40;99.90
8965;DHT22;4517;49.020;12.066;2023-05-07T12:08:18;21.20;99.90
8965;DHT22;4517;49.020;12.066;2023-05-07T12:10:46;21.20;99.90
8965;DHT22;4517;49.020;12.066;2023-05-07T12:13:25;21.10;99.90
8965;DHT22;4517;49.020;12.066;2023-05-07T12:15:52;21.10;99.90
8965;DHT22;4517;49.020;12.066;2023-05-07T12:18:17;21.00;99.90
8965;DHT22;4517;49.020;12.066;2023-05-07T12:20:43;21.10;99.90
8965;DHT22;4517;49.020;12.066;2023-05-07T12:23:10;21.10;99.90
8965;DHT22;4517;49.020;12.066;2023-05-07T12:25:37;20.90;99.90
8965;DHT22;4517;49.020;12.066;2023-05-07T12:28:04;21.10;99.90
8965;DHT22;4517;49.020;12.066;2023-05-07T12:30:37;21.10;99.90
8965;DHT22;4517;49.020;12.066;2023-05-07T12:33:03;21.20;99.90
8965;DHT22;4517;49.020;12.066;2023-05-07T12:35:29;21.40;99.90
8965;DHT22;4517;49.020;12.066;2023-05-07T12:37:56;21.50;99.90
8965;DHT22;4517;49.020;12.066;2023-05-07T12:40:22;21.40;99.90
8965;DHT22;4517;49.020;12.066;2023-05-07T12:42:52;21.20;99.90
8965;DHT22;4517;49.020;12.066;2023-05-07T12:45:19;21.20;99.90
8965;DHT22;4517;49.020;12.066;2023-05-07T12:47:45;21.30;99.90
8965;DHT22;4517;49.020;12.066;2023-05-07T12:50:12;21.30;99.90
8965;DHT22;4517;49.020;12.066;2023-05-07T12:52:38;21.30;99.90
8965;DHT22;4517;49.020;12.066;2023-05-07T12:55:07;21.40;99.90
8965;DHT22;4517;49.020;12.066;2023-05-07T12:57:43;21.40;99.90
8965;DHT22;4517;49.020;12.066;2023-05-07T13:00:09;21.20;99.90
8965;DHT22;4517;49.020;12.066;2023-05-07T13:02:39;21.50;99.90
8965;DHT22;4517;49.020;12.066;2023-05-07T13:05:05;21.70;99.90
8965;DHT22;4517;49.020;12.066;2023-05-07T13:07:31;21.70;99.90
8965;DHT22;4517;49.020;12.066;2023-05-07T13:09:57;21.70;99.90
8965;DHT22;4517;49.020;12.066;2023-05-07T13:12:22;21.40;99.90
8965;DHT22;4517;49.020;12.066;2023-05-07T13:14:48;21.80;99.90
8965;DHT22;4517;49.020;12.066;2023-05-07T13:17:13;22.00;99.90
8965;DHT22;4517;49.020;12.066;2023-05-07T13:19:39;21.60;99.90
8965;DHT22;4517;49.020;12.066;2023-05-07T13:22:05;21.40;99.90
8965;DHT22;4517;49.020;12.066;2023-05-07T13:24:31;21.50;99.90
8965;DHT22;4517;49.020;12.066;2023-05-07T13:26:56;21.70;99.90
8965;DHT22;4517;49.020;12.066;2023-05-07T13:29:22;21.90;99.90
8965;DHT22;4517;49.020;12.066;2023-05-07T13:31:58;22.40;99.90
8965;DHT22;4517;49.020;12.066;2023-05-07T13:34:24;22.40;99.90
8965;DHT22;4517;49.020;12.066;2023-05-07T13:36:50;22.20;99.90
8965;DHT22;4517;49.020;12.066;2023-05-07T13:39:15;22.10;99.90
8965;DHT22;4517;49.020;12.066;2023-05-07T13:41:41;22.00;99.90
8965;DHT22;4517;49.020;12.066;2023-05-07T13:44:06;22.00;99.90
8965;DHT22;4517;49.020;12.066;2023-05-07T13:46:32;21.90;99.90
8965;DHT22;4517;49.020;12.066;2023-05-07T13:48:57;22.10;99.90
8965;DHT22;4517;49.020;12.066;2023-05-07T13:51:23;22.00;99.90
8965;DHT22;4517;49.020;12.066;2023-05-07T13:53:49;22.00;99.90
8965;DHT22;4517;49.020;12.066;2023-05-07T13:56:14;22.00;99.90
8965;DHT22;4517;49.020;12.066;2023-05-07T13:58:40;22.10;99.90
8965;DHT22;4517;49.020;12.066;2023-05-07T14:01:06;22.10;99.90
8965;DHT22;4517;49.020;12.066;2023-05-07T14:03:31;22.00;99.90
8965;DHT22;4517;49.020;12.066;2023-05-07T14:05:59;22.10;99.90
8965;DHT22;4517;49.020;12.066;2023-05-07T14:08:27;22.00;99.90
8965;DHT22;4517;49.020;12.066;2023-05-07T14:10:52;22.00;99.90
8965;DHT22;4517;49.020;12.066;2023-05-07T14:13:18;22.10;99.90
8965;DHT22;4517;49.020;12.066;2023-05-07T14:15:44;22.20;99.90
8965;DHT22;4517;49.020;12.066;2023-05-07T14:18:14;22.40;99.90
8965;DHT22;4517;49.020;12.066;2023-05-07T14:20:40;22.40;99.90
8965;DHT22;4517;49.020;12.066;2023-05-07T14:23:06;22.20;99.90
8965;DHT22;4517;49.020;12.066;2023-05-07T14:25:32;22.30;99.90
8965;DHT22;4517;49.020;12.066;2023-05-07T14:27:57;22.20;99.90
8965;DHT22;4517;49.020;12.066;2023-05-07T14:30:23;22.00;99.90
8965;DHT22;4517;49.020;12.066;2023-05-07T14:32:50;22.10;99.90
8965;DHT22;4517;49.020;12.066;2023-05-07T14:35:16;22.10;99.90
8965;DHT22;4517;49.020;12.066;2023-05-07T14:37:42;22.40;99.90
8965;DHT22;4517;49.020;12.066;2023-05-07T14:40:08;22.40;99.90
8965;DHT22;4517;49.020;12.066;2023-05-07T14:42:34;22.20;99.90
8965;DHT22;4517;49.020;12.066;2023-05-07T14:44:59;22.10;99.90
8965;DHT22;4517;49.020;12.066;2023-05-07T14:47:25;22.20;99.90
8965;DHT22;4517;49.020;12.066;2023-05-07T14:49:51;22.10;99.90
8965;DHT22;4517;49.020;12.066;2023-05-07T14:52:16;22.30;99.90
8965;DHT22;4517;49.020;12.066;2023-05-07T14:54:42;22.20;99.90
8965;DHT22;4517;49.020;12.066;2023-05-07T14:57:09;22.30;99.90
8965;DHT22;4517;49.020;12.066;2023-05-07T14:59:35;22.40;99.90
8965;DHT22;4517;49.020;12.066;2023-05-07T15:02:02;22.30;99.90
8965;DHT22;4517;49.020;12.066;2023-05-07T15:04:30;22.50;99.90
8965;DHT22;4517;49.020;12.066;2023-05-07T15:06:55;22.50;99.90
8965;DHT22;4517;49.020;12.066;2023-05-07T15:09:21;22.30;99.90
8965;DHT22;4517;49.020;12.066;2023-05-07T15:11:47;22.00;99.90
8965;DHT22;4517;49.020;12.066;2023-05-07T15:14:12;22.00;99.90
8965;DHT22;4517;49.020;12.066;2023-05-07T15:16:38;21.80;99.90
8965;DHT22;4517;49.020;12.066;2023-05-07T15:19:03;21.70;99.90
8965;DHT22;4517;49.020;12.066;2023-05-07T15:21:29;21.60;99.90
8965;DHT22;4517;49.020;12.066;2023-05-07T15:23:58;21.60;99.90
8965;DHT22;4517;49.020;12.066;2023-05-07T15:26:23;21.70;99.90
8965;DHT22;4517;49.020;12.066;2023-05-07T15:28:49;21.60;99.90
8965;DHT22;4517;49.020;12.066;2023-05-07T15:31:15;21.50;99.90
8965;DHT22;4517;49.020;12.066;2023-05-07T15:33:41;21.50;99.90
8965;DHT22;4517;49.020;12.066;2023-05-07T15:36:06;21.30;99.90
8965;DHT22;4517;49.020;12.066;2023-05-07T15:38:32;21.30;99.90
8965;DHT22;4517;49.020;12.066;2023-05-07T15:40:57;21.10;99.90
8965;DHT22;4517;49.020;12.066;2023-05-07T15:43:23;21.30;99.90
8965;DHT22;4517;49.020;12.066;2023-05-07T15:45:50;21.30;99.90
8965;DHT22;4517;49.020;12.066;2023-05-07T15:48:15;21.30;99.90
8965;DHT22;4517;49.020;12.066;2023-05-07T15:50:41;21.30;99.90
8965;DHT22;4517;49.020;12.066;2023-05-07T15:53:07;21.20;99.90